Poughquag, NY

1:23 AM EDT on July 29, 2016 (GMT -0400)
West Mountain | | Change Station

Elev 807 ft 41.62 °N, 73.64 °W | Updated 22 minutes ago

Rain
Rain
71.4 °F
Feels Like 71.4 °F
N
0.0
Wind Variable Wind from North
Gusts 0.0 mph

Today
High -- | Low -- °F
--% Chance of Precip.
Yesterday
High -- | Low -- °F
Precip. -- in
Pressure 29.86 in
Visibility 7.0 miles
Clouds Few 8500 ft
Mostly Cloudy 12000 ft
Dew Point 71 °F
Humidity 97%
Rainfall 0.00 in
Snow Depth Not available.
5:46 AM 8:14 PM
Waning Crescent, 25% visible
METAR KPOU 290453Z AUTO 00000KT 7SM FEW085 BKN120 24/22 A2987 RMK AO2 RAB38E49 SLP110 P0001 T02390217 403500178
Pressure 29.86 in
Visibility 7.0 miles
Clouds Few 8500 ft
Mostly Cloudy 12000 ft
Dew Point 71 °F
Humidity 97%
Rainfall 0.00 in
Snow Depth Not available.
5:46 AM 8:14 PM
Waning Crescent, 25% visible
METAR KPOU 290453Z AUTO 00000KT 7SM FEW085 BKN120 24/22 A2987 RMK AO2 RAB38E49 SLP110 P0001 T02390217 403500178

10-Day Weather Forecast

Almanac

Astronomy

Jul. 29, 2016 Rise Set
Actual Time
Civil Twilight
Nautical Twilight
Astronomical Twilight
Moon
Length of Visible Light
Length of Day
Tomorrow will be .
, % of the Moon is Illuminated

Today's Extremes

State Highs State Lows

Community

WunderPhotos

Upload Photos

1,928,297 photos uploaded!

WunderBlog® & News

Nearby

Air Quality

  Air Quality AQ Index Pollutant
Not available.

Snow Depth

Station Depth Elevation

Earthquake Activity

City Distance Mag. Time & Date
Minimum magnitude displayed is 2.5.

Coastal Water Temperatures

Place Temperature

Stations

Nearby Weather Stations

Station Location Temp. Windchill Dew Point Humidity Wind Precip. Elev Updated Type
                   

Watches & Warnings

There are currently no watches in effect.